LPAZ/SMA METAR and TAF weather

Enter ICAO airport designator
Station Type Date Time Source
LPAZ METAR 2021/05/14 07:00 UTC NOAA

LPAZ 140700Z 26008KT 9999 FEW006 BKN022 18/17 Q1025


Station Type Date Time Source
LPAZ Decoded METAR 2021/05/14 07:00 UTC NOAA

Santa Maria Acores , Portugal (LPAZ) 36-58N 025-10W 100M
May 14, 2021 - 03:00 AM EDT / 2021.05.14 0700 UTC
Wind: from the W (260 degrees) at 9 MPH (8 KT):0
Visibility: greater than 7 mile(s):0
Sky conditions: mostly cloudy
Temperature: 64 F (18 C)
Dew Point: 62 F (17 C)
Relative Humidity: 93%
Pressure (altimeter): 30.27 in. Hg (1025 hPa)
ob: LPAZ 140700Z 26008KT 9999 FEW006 BKN022 18/17 Q1025
cycle: 7

Station Type Date Time Source
LPAZ TAF 2021/05/14 06:20 UTC NOAA

TAF LPAZ 140500Z 1406/1512 27010KT 9999 SCT010 BKN020 PROB40
TEMPO 1406/1412 SCT004 BKN008
BECMG 1412/1415 SCT020

Example: see airport list